sensor_id;sensor_type;location;lat;lon;timestamp;pressure;altitude;pressure_sealevel;temperature;humidity
61506;BME280;47366;51.916;4.574;2023-01-19T00:00:59;100159.84;;;3.53;88.99
61506;BME280;47366;51.916;4.574;2023-01-19T00:03:25;100167.97;;;3.50;89.76
61506;BME280;47366;51.916;4.574;2023-01-19T00:05:50;100157.47;;;3.45;89.52
61506;BME280;47366;51.916;4.574;2023-01-19T00:08:17;100164.56;;;3.46;90.07
61506;BME280;47366;51.916;4.574;2023-01-19T00:10:46;100168.25;;;3.44;89.80
61506;BME280;47366;51.916;4.574;2023-01-19T00:13:12;100172.66;;;3.45;90.08
61506;BME280;47366;51.916;4.574;2023-01-19T00:15:38;100165.69;;;3.40;90.45
61506;BME280;47366;51.916;4.574;2023-01-19T00:18:04;100169.19;;;3.43;90.53
61506;BME280;47366;51.916;4.574;2023-01-19T00:20:29;100169.31;;;3.39;90.75
61506;BME280;47366;51.916;4.574;2023-01-19T00:22:59;100181.75;;;3.40;91.09
61506;BME280;47366;51.916;4.574;2023-01-19T00:25:25;100184.44;;;3.40;91.23
61506;BME280;47366;51.916;4.574;2023-01-19T00:27:50;100192.47;;;3.40;91.40
61506;BME280;47366;51.916;4.574;2023-01-19T00:30:16;100192.59;;;3.37;91.95
61506;BME280;47366;51.916;4.574;2023-01-19T00:32:41;100208.81;;;3.34;92.52
61506;BME280;47366;51.916;4.574;2023-01-19T00:35:07;100201.81;;;3.30;92.34
61506;BME280;47366;51.916;4.574;2023-01-19T00:37:32;100201.78;;;3.32;92.99
61506;BME280;47366;51.916;4.574;2023-01-19T00:39:57;100198.28;;;3.30;92.21
61506;BME280;47366;51.916;4.574;2023-01-19T00:42:23;100189.50;;;3.26;92.55
61506;BME280;47366;51.916;4.574;2023-01-19T00:45:11;100195.84;;;3.24;92.94
61506;BME280;47366;51.916;4.574;2023-01-19T00:47:37;100205.66;;;3.25;92.87
61506;BME280;47366;51.916;4.574;2023-01-19T00:50:04;100206.50;;;3.25;93.00
61506;BME280;47366;51.916;4.574;2023-01-19T00:52:30;100212.84;;;3.23;93.58
61506;BME280;47366;51.916;4.574;2023-01-19T00:54:55;100216.41;;;3.23;93.24
61506;BME280;47366;51.916;4.574;2023-01-19T00:57:21;100206.56;;;3.24;93.92
61506;BME280;47366;51.916;4.574;2023-01-19T00:59:46;100208.50;;;3.20;93.87
61506;BME280;47366;51.916;4.574;2023-01-19T01:02:11;100210.31;;;3.19;93.60
61506;BME280;47366;51.916;4.574;2023-01-19T01:04:37;100224.81;;;3.14;94.50
61506;BME280;47366;51.916;4.574;2023-01-19T01:07:03;100224.75;;;3.15;94.09
61506;BME280;47366;51.916;4.574;2023-01-19T01:09:28;100234.50;;;3.16;94.12
61506;BME280;47366;51.916;4.574;2023-01-19T01:11:54;100221.25;;;3.13;93.72
61506;BME280;47366;51.916;4.574;2023-01-19T01:14:19;100235.50;;;3.14;94.12
61506;BME280;47366;51.916;4.574;2023-01-19T01:16:45;100230.25;;;3.12;94.27
61506;BME280;47366;51.916;4.574;2023-01-19T01:19:10;100229.47;;;3.09;93.91
61506;BME280;47366;51.916;4.574;2023-01-19T01:21:37;100232.19;;;3.07;94.25
61506;BME280;47366;51.916;4.574;2023-01-19T01:24:03;100232.16;;;3.09;94.67
61506;BME280;47366;51.916;4.574;2023-01-19T01:26:28;100230.34;;;3.09;94.45
61506;BME280;47366;51.916;4.574;2023-01-19T01:28:53;100234.81;;;3.09;93.49
61506;BME280;47366;51.916;4.574;2023-01-19T01:31:19;100236.63;;;3.08;94.33
61506;BME280;47366;51.916;4.574;2023-01-19T01:33:44;100251.75;;;3.09;94.26
61506;BME280;47366;51.916;4.574;2023-01-19T01:36:10;100265.06;;;3.11;94.65
61506;BME280;47366;51.916;4.574;2023-01-19T01:38:37;100274.00;;;3.10;93.82
61506;BME280;47366;51.916;4.574;2023-01-19T01:41:03;100267.81;;;3.09;94.47
61506;BME280;47366;51.916;4.574;2023-01-19T01:43:43;100266.19;;;3.05;94.31
61506;BME280;47366;51.916;4.574;2023-01-19T01:46:09;100274.28;;;3.04;94.35
61506;BME280;47366;51.916;4.574;2023-01-19T01:48:35;100268.06;;;3.03;95.15
61506;BME280;47366;51.916;4.574;2023-01-19T01:51:07;100273.50;;;3.00;94.85
61506;BME280;47366;51.916;4.574;2023-01-19T01:53:53;100271.84;;;2.97;94.70
61506;BME280;47366;51.916;4.574;2023-01-19T01:56:25;100269.16;;;2.97;94.53
61506;BME280;47366;51.916;4.574;2023-01-19T01:58:55;100282.47;;;2.99;94.89
61506;BME280;47366;51.916;4.574;2023-01-19T02:01:21;100281.63;;;2.98;95.03
61506;BME280;47366;51.916;4.574;2023-01-19T02:04:04;100282.63;;;2.96;94.82
61506;BME280;47366;51.916;4.574;2023-01-19T02:06:30;100286.97;;;2.98;94.44
61506;BME280;47366;51.916;4.574;2023-01-19T02:09:02;100284.34;;;2.97;94.52
61506;BME280;47366;51.916;4.574;2023-01-19T02:11:49;100278.94;;;2.98;94.29
61506;BME280;47366;51.916;4.574;2023-01-19T02:14:34;100272.78;;;2.96;93.93
61506;BME280;47366;51.916;4.574;2023-01-19T02:17:01;100283.34;;;3.00;93.74
61506;BME280;47366;51.916;4.574;2023-01-19T02:19:32;100296.84;;;2.96;94.05
61506;BME280;47366;51.916;4.574;2023-01-19T02:24:39;100305.91;;;2.92;94.15
61506;BME280;47366;51.916;4.574;2023-01-19T02:27:06;100308.69;;;2.91;94.29
61506;BME280;47366;51.916;4.574;2023-01-19T02:29:32;100316.75;;;2.89;94.79
61506;BME280;47366;51.916;4.574;2023-01-19T02:31:59;100319.59;;;2.85;95.32
61506;BME280;47366;51.916;4.574;2023-01-19T02:34:26;100326.16;;;2.76;95.12
61506;BME280;47366;51.916;4.574;2023-01-19T02:36:55;100338.78;;;2.72;94.86
61506;BME280;47366;51.916;4.574;2023-01-19T02:39:26;100346.94;;;2.69;94.54
61506;BME280;47366;51.916;4.574;2023-01-19T02:41:54;100338.78;;;2.72;94.42
61506;BME280;47366;51.916;4.574;2023-01-19T02:44:24;100340.69;;;2.69;94.61
61506;BME280;47366;51.916;4.574;2023-01-19T02:46:53;100335.41;;;2.67;94.67
61506;BME280;47366;51.916;4.574;2023-01-19T02:49:18;100336.25;;;2.69;94.88
61506;BME280;47366;51.916;4.574;2023-01-19T02:51:43;100331.81;;;2.68;94.35
61506;BME280;47366;51.916;4.574;2023-01-19T02:59:52;100343.47;;;2.66;94.33
61506;BME280;47366;51.916;4.574;2023-01-19T03:02:34;100348.88;;;2.64;94.32
61506;BME280;47366;51.916;4.574;2023-01-19T03:13:44;100327.81;;;2.55;94.30
61506;BME280;47366;51.916;4.574;2023-01-19T03:16:16;100322.44;;;2.57;94.73
61506;BME280;47366;51.916;4.574;2023-01-19T03:18:50;100309.13;;;2.55;94.59
61506;BME280;47366;51.916;4.574;2023-01-19T03:21:19;100320.53;;;2.60;94.43
61506;BME280;47366;51.916;4.574;2023-01-19T03:23:49;100315.19;;;2.60;94.21
61506;BME280;47366;51.916;4.574;2023-01-19T03:26:18;100308.91;;;2.61;94.19
61506;BME280;47366;51.916;4.574;2023-01-19T03:28:46;100316.91;;;2.61;94.24
61506;BME280;47366;51.916;4.574;2023-01-19T03:31:16;100312.50;;;2.60;94.42
61506;BME280;47366;51.916;4.574;2023-01-19T03:33:46;100309.88;;;2.59;94.31
61506;BME280;47366;51.916;4.574;2023-01-19T03:36:17;100321.41;;;2.61;94.16
61506;BME280;47366;51.916;4.574;2023-01-19T03:38:45;100310.88;;;2.56;94.30
61506;BME280;47366;51.916;4.574;2023-01-19T03:41:15;100312.69;;;2.55;94.49
61506;BME280;47366;51.916;4.574;2023-01-19T03:43:42;100361.72;;;2.54;95.13
61506;BME280;47366;51.916;4.574;2023-01-19T03:46:09;100374.09;;;2.57;95.42
61506;BME280;47366;51.916;4.574;2023-01-19T03:48:35;100375.94;;;2.55;95.24
61506;BME280;47366;51.916;4.574;2023-01-19T03:51:07;100350.94;;;2.58;94.63
61506;BME280;47366;51.916;4.574;2023-01-19T03:53:33;100344.59;;;2.60;94.58
61506;BME280;47366;51.916;4.574;2023-01-19T03:55:59;100337.56;;;2.58;94.93
61506;BME280;47366;51.916;4.574;2023-01-19T03:58:25;100353.47;;;2.61;94.76
61506;BME280;47366;51.916;4.574;2023-01-19T04:00:51;100349.00;;;2.61;94.82
61506;BME280;47366;51.916;4.574;2023-01-19T04:03:17;100352.44;;;2.65;94.55
61506;BME280;47366;51.916;4.574;2023-01-19T04:05:44;100370.09;;;2.69;94.70
61506;BME280;47366;51.916;4.574;2023-01-19T04:08:09;100354.97;;;2.69;94.30
61506;BME280;47366;51.916;4.574;2023-01-19T04:10:36;100367.34;;;2.72;94.46
61506;BME280;47366;51.916;4.574;2023-01-19T04:13:01;100355.69;;;2.73;93.97
61506;BME280;47366;51.916;4.574;2023-01-19T04:15:27;100362.84;;;2.72;94.06
61506;BME280;47366;51.916;4.574;2023-01-19T04:17:53;100372.59;;;2.73;94.61
61506;BME280;47366;51.916;4.574;2023-01-19T04:20:21;100389.44;;;2.77;94.39
61506;BME280;47366;51.916;4.574;2023-01-19T04:22:46;100373.59;;;2.71;94.36
61506;BME280;47366;51.916;4.574;2023-01-19T04:25:13;100377.03;;;2.74;94.94
61506;BME280;47366;51.916;4.574;2023-01-19T04:27:38;100361.88;;;2.75;94.17
61506;BME280;47366;51.916;4.574;2023-01-19T04:30:04;100373.31;;;2.79;94.70
61506;BME280;47366;51.916;4.574;2023-01-19T04:32:31;100363.44;;;2.81;94.44
61506;BME280;47366;51.916;4.574;2023-01-19T04:34:57;100359.84;;;2.82;94.20
61506;BME280;47366;51.916;4.574;2023-01-19T04:37:22;100359.75;;;2.83;94.62
61506;BME280;47366;51.916;4.574;2023-01-19T04:39:47;100365.03;;;2.86;94.59
61506;BME280;47366;51.916;4.574;2023-01-19T04:42:13;100370.28;;;2.88;94.71
61506;BME280;47366;51.916;4.574;2023-01-19T04:44:38;100361.34;;;2.89;94.78
61506;BME280;47366;51.916;4.574;2023-01-19T04:47:03;100369.31;;;2.90;94.37
61506;BME280;47366;51.916;4.574;2023-01-19T04:49:29;100356.06;;;2.87;94.95
61506;BME280;47366;51.916;4.574;2023-01-19T04:51:54;100361.34;;;2.89;93.83
61506;BME280;47366;51.916;4.574;2023-01-19T04:54:20;100345.34;;;2.87;93.63
61506;BME280;47366;51.916;4.574;2023-01-19T04:56:45;100354.19;;;2.89;94.37
61506;BME280;47366;51.916;4.574;2023-01-19T04:59:11;100363.78;;;2.95;94.14
61506;BME280;47366;51.916;4.574;2023-01-19T05:01:36;100361.91;;;2.97;94.50
61506;BME280;47366;51.916;4.574;2023-01-19T05:04:02;100372.56;;;2.98;93.91
61506;BME280;47366;51.916;4.574;2023-01-19T05:06:30;100372.56;;;2.98;94.37
61506;BME280;47366;51.916;4.574;2023-01-19T05:08:55;100376.97;;;3.00;93.54
61506;BME280;47366;51.916;4.574;2023-01-19T05:11:21;100377.94;;;2.98;94.49
61506;BME280;47366;51.916;4.574;2023-01-19T05:13:46;100382.47;;;2.96;94.17
61506;BME280;47366;51.916;4.574;2023-01-19T05:16:11;100383.38;;;2.95;94.29
61506;BME280;47366;51.916;4.574;2023-01-19T05:18:38;100382.47;;;2.96;94.40
61506;BME280;47366;51.916;4.574;2023-01-19T05:21:04;100385.13;;;2.96;94.48
61506;BME280;47366;51.916;4.574;2023-01-19T05:23:29;100385.19;;;2.95;94.30
61506;BME280;47366;51.916;4.574;2023-01-19T05:25:57;100381.59;;;2.96;94.18
61506;BME280;47366;51.916;4.574;2023-01-19T05:28:28;100394.19;;;2.92;94.22
61506;BME280;47366;51.916;4.574;2023-01-19T05:30:53;100382.59;;;2.93;94.18
61506;BME280;47366;51.916;4.574;2023-01-19T05:33:20;100391.47;;;2.94;94.48
61506;BME280;47366;51.916;4.574;2023-01-19T05:35:48;100384.47;;;2.90;94.09
61506;BME280;47366;51.916;4.574;2023-01-19T05:38:13;100389.88;;;2.88;94.22
61506;BME280;47366;51.916;4.574;2023-01-19T05:40:39;100399.66;;;2.89;94.49
61506;BME280;47366;51.916;4.574;2023-01-19T05:43:04;100397.13;;;2.86;94.75
61506;BME280;47366;51.916;4.574;2023-01-19T05:45:29;100402.56;;;2.83;94.76
61506;BME280;47366;51.916;4.574;2023-01-19T05:47:55;100399.06;;;2.81;94.34
61506;BME280;47366;51.916;4.574;2023-01-19T05:50:20;100400.88;;;2.81;94.24
61506;BME280;47366;51.916;4.574;2023-01-19T05:52:45;100402.81;;;2.77;94.54
61506;BME280;47366;51.916;4.574;2023-01-19T05:55:11;100402.03;;;2.73;94.27
61506;BME280;47366;51.916;4.574;2023-01-19T05:57:36;100401.97;;;2.75;94.63
61506;BME280;47366;51.916;4.574;2023-01-19T06:00:03;100404.78;;;2.72;94.09
61506;BME280;47366;51.916;4.574;2023-01-19T06:02:29;100402.19;;;2.69;94.48
61506;BME280;47366;51.916;4.574;2023-01-19T06:04:55;100394.97;;;2.71;94.29
61506;BME280;47366;51.916;4.574;2023-01-19T06:07:20;100405.56;;;2.74;94.28
61506;BME280;47366;51.916;4.574;2023-01-19T06:09:46;100408.31;;;2.72;94.04
61506;BME280;47366;51.916;4.574;2023-01-19T06:12:11;100409.19;;;2.73;93.84
61506;BME280;47366;51.916;4.574;2023-01-19T06:14:36;100423.38;;;2.75;94.01
61506;BME280;47366;51.916;4.574;2023-01-19T06:17:02;100419.00;;;2.72;94.28
61506;BME280;47366;51.916;4.574;2023-01-19T06:19:30;100421.69;;;2.72;94.29
61506;BME280;47366;51.916;4.574;2023-01-19T06:21:55;100434.19;;;2.72;93.70
61506;BME280;47366;51.916;4.574;2023-01-19T06:24:20;100435.91;;;2.73;93.69
61506;BME280;47366;51.916;4.574;2023-01-19T06:26:47;100445.75;;;2.72;93.94
61506;BME280;47366;51.916;4.574;2023-01-19T06:29:12;100447.59;;;2.70;93.91
61506;BME280;47366;51.916;4.574;2023-01-19T06:31:39;100453.97;;;2.66;93.61
61506;BME280;47366;51.916;4.574;2023-01-19T06:34:04;100464.63;;;2.68;93.67
61506;BME280;47366;51.916;4.574;2023-01-19T06:36:30;100468.13;;;2.70;93.92
61506;BME280;47366;51.916;4.574;2023-01-19T06:38:55;100468.06;;;2.71;94.35
61506;BME280;47366;51.916;4.574;2023-01-19T06:41:20;100468.00;;;2.73;93.82
61506;BME280;47366;51.916;4.574;2023-01-19T06:43:46;100481.34;;;2.74;94.43
61506;BME280;47366;51.916;4.574;2023-01-19T06:46:11;100476.00;;;2.74;94.16
61506;BME280;47366;51.916;4.574;2023-01-19T06:48:37;100473.19;;;2.78;93.60
61506;BME280;47366;51.916;4.574;2023-01-19T06:51:02;100473.19;;;2.78;93.17
61506;BME280;47366;51.916;4.574;2023-01-19T06:53:30;100477.53;;;2.82;93.05
61506;BME280;47366;51.916;4.574;2023-01-19T06:56:00;100486.41;;;2.82;93.38
61506;BME280;47366;51.916;4.574;2023-01-19T06:58:29;100486.41;;;2.82;93.27
61506;BME280;47366;51.916;4.574;2023-01-19T07:01:00;100480.28;;;2.79;92.68
61506;BME280;47366;51.916;4.574;2023-01-19T07:03:26;100486.56;;;2.78;92.36
61506;BME280;47366;51.916;4.574;2023-01-19T07:05:52;100492.75;;;2.80;92.83
61506;BME280;47366;51.916;4.574;2023-01-19T07:08:18;100490.09;;;2.78;93.09
61506;BME280;47366;51.916;4.574;2023-01-19T07:10:43;100511.47;;;2.80;93.14
61506;BME280;47366;51.916;4.574;2023-01-19T07:13:09;100507.13;;;2.75;92.91
61506;BME280;47366;51.916;4.574;2023-01-19T07:15:34;100509.00;;;2.73;93.44
61506;BME280;47366;51.916;4.574;2023-01-19T07:18:01;100517.00;;;2.73;93.27
61506;BME280;47366;51.916;4.574;2023-01-19T07:20:32;100521.50;;;2.73;93.11
61506;BME280;47366;51.916;4.574;2023-01-19T07:22:57;100516.16;;;2.73;93.45
61506;BME280;47366;51.916;4.574;2023-01-19T07:25:22;100530.34;;;2.75;93.30
61506;BME280;47366;51.916;4.574;2023-01-19T07:27:48;100521.50;;;2.73;93.48
61506;BME280;47366;51.916;4.574;2023-01-19T07:30:13;100525.97;;;2.72;93.61
61506;BME280;47366;51.916;4.574;2023-01-19T07:32:40;100533.06;;;2.73;93.76
61506;BME280;47366;51.916;4.574;2023-01-19T07:35:08;100534.88;;;2.73;93.67
61506;BME280;47366;51.916;4.574;2023-01-19T07:37:33;100538.47;;;2.72;93.78
61506;BME280;47366;51.916;4.574;2023-01-19T07:39:58;100548.13;;;2.76;93.63
61506;BME280;47366;51.916;4.574;2023-01-19T07:42:24;100539.19;;;2.77;93.69
61506;BME280;47366;51.916;4.574;2023-01-19T07:44:49;100542.63;;;2.81;93.29
61506;BME280;47366;51.916;4.574;2023-01-19T07:47:14;100547.88;;;2.84;93.54
61506;BME280;47366;51.916;4.574;2023-01-19T07:49:39;100546.94;;;2.85;93.74
61506;BME280;47366;51.916;4.574;2023-01-19T07:52:05;100559.28;;;2.89;93.31
61506;BME280;47366;51.916;4.574;2023-01-19T07:54:31;100561.97;;;2.89;93.69
61506;BME280;47366;51.916;4.574;2023-01-19T07:56:56;100565.38;;;2.92;93.00
61506;BME280;47366;51.916;4.574;2023-01-19T07:59:21;100572.44;;;2.95;93.20
61506;BME280;47366;51.916;4.574;2023-01-19T08:01:47;100575.06;;;2.96;92.87
61506;BME280;47366;51.916;4.574;2023-01-19T08:04:12;100565.28;;;2.95;92.83
61506;BME280;47366;51.916;4.574;2023-01-19T08:06:38;100569.59;;;3.00;93.03
61506;BME280;47366;51.916;4.574;2023-01-19T08:09:04;100576.72;;;3.01;92.32
61506;BME280;47366;51.916;4.574;2023-01-19T08:11:31;100591.84;;;3.02;92.48
61506;BME280;47366;51.916;4.574;2023-01-19T08:13:57;100604.25;;;3.03;92.66
61506;BME280;47366;51.916;4.574;2023-01-19T08:16:22;100599.84;;;3.02;92.34
61506;BME280;47366;51.916;4.574;2023-01-19T08:18:48;100598.13;;;3.01;92.55
61506;BME280;47366;51.916;4.574;2023-01-19T08:21:13;100598.88;;;3.04;92.36
61506;BME280;47366;51.916;4.574;2023-01-19T08:23:39;100592.78;;;3.01;92.68
61506;BME280;47366;51.916;4.574;2023-01-19T08:26:32;100605.09;;;3.05;92.27
61506;BME280;47366;51.916;4.574;2023-01-19T08:29:00;100608.72;;;3.04;92.33
61506;BME280;47366;51.916;4.574;2023-01-19T08:31:26;100608.72;;;3.04;92.42
61506;BME280;47366;51.916;4.574;2023-01-19T08:33:51;100601.66;;;3.01;92.43
61506;BME280;47366;51.916;4.574;2023-01-19T08:36:17;100607.00;;;3.01;92.09
61506;BME280;47366;51.916;4.574;2023-01-19T08:38:44;100612.38;;;3.01;92.38
61506;BME280;47366;51.916;4.574;2023-01-19T08:41:10;100612.28;;;3.03;91.77
61506;BME280;47366;51.916;4.574;2023-01-19T08:43:35;100614.06;;;3.04;92.03
61506;BME280;47366;51.916;4.574;2023-01-19T08:46:02;100606.84;;;3.06;91.54
61506;BME280;47366;51.916;4.574;2023-01-19T08:48:27;100612.22;;;3.06;91.05
61506;BME280;47366;51.916;4.574;2023-01-19T08:50:53;100621.84;;;3.10;91.30
61506;BME280;47366;51.916;4.574;2023-01-19T08:53:18;100614.81;;;3.07;91.33
61506;BME280;47366;51.916;4.574;2023-01-19T08:55:45;100619.13;;;3.11;90.70
61506;BME280;47366;51.916;4.574;2023-01-19T08:58:10;100618.22;;;3.12;90.99
61506;BME280;47366;51.916;4.574;2023-01-19T09:00:37;100624.34;;;3.16;90.52
61506;BME280;47366;51.916;4.574;2023-01-19T09:03:04;100625.28;;;3.15;90.66
61506;BME280;47366;51.916;4.574;2023-01-19T09:05:31;100626.03;;;3.18;91.05
61506;BME280;47366;51.916;4.574;2023-01-19T09:08:00;100620.78;;;3.15;90.55
61506;BME280;47366;51.916;4.574;2023-01-19T09:10:27;100633.91;;;3.23;90.39
61506;BME280;47366;51.916;4.574;2023-01-19T09:12:56;100627.72;;;3.21;90.34
61506;BME280;47366;51.916;4.574;2023-01-19T09:15:21;100634.72;;;3.25;90.13
61506;BME280;47366;51.916;4.574;2023-01-19T09:17:47;100628.44;;;3.26;90.26
61506;BME280;47366;51.916;4.574;2023-01-19T09:20:12;100646.09;;;3.32;90.25
61506;BME280;47366;51.916;4.574;2023-01-19T09:22:38;100641.56;;;3.34;90.35
61506;BME280;47366;51.916;4.574;2023-01-19T09:25:05;100643.31;;;3.35;89.55
61506;BME280;47366;51.916;4.574;2023-01-19T09:27:31;100643.25;;;3.36;89.62
61506;BME280;47366;51.916;4.574;2023-01-19T09:29:56;100647.53;;;3.42;89.02
61506;BME280;47366;51.916;4.574;2023-01-19T09:32:22;100651.72;;;3.49;88.64
61506;BME280;47366;51.916;4.574;2023-01-19T09:34:47;100652.50;;;3.53;88.74
61506;BME280;47366;51.916;4.574;2023-01-19T09:37:13;100648.72;;;3.58;88.47
61506;BME280;47366;51.916;4.574;2023-01-19T09:39:40;100653.78;;;3.66;88.27
61506;BME280;47366;51.916;4.574;2023-01-19T09:42:26;100653.34;;;3.78;87.87
61506;BME280;47366;51.916;4.574;2023-01-19T09:44:55;100660.91;;;3.91;87.38
61506;BME280;47366;51.916;4.574;2023-01-19T09:47:23;100661.41;;;4.02;87.21
61506;BME280;47366;51.916;4.574;2023-01-19T09:49:53;100658.22;;;4.16;87.27
61506;BME280;47366;51.916;4.574;2023-01-19T09:52:23;100668.41;;;4.30;86.65
61506;BME280;47366;51.916;4.574;2023-01-19T09:57:13;100667.06;;;4.63;84.96
61506;BME280;47366;51.916;4.574;2023-01-19T09:59:39;100669.22;;;4.77;84.40
61506;BME280;47366;51.916;4.574;2023-01-19T10:02:31;100671.25;;;4.93;83.45
61506;BME280;47366;51.916;4.574;2023-01-19T10:05:29;100668.72;;;5.10;80.34
61506;BME280;47366;51.916;4.574;2023-01-19T10:10:52;100676.25;;;5.44;79.93
61506;BME280;47366;51.916;4.574;2023-01-19T10:13:44;100680.38;;;5.53;78.21
61506;BME280;47366;51.916;4.574;2023-01-19T10:18:44;100692.50;;;5.82;78.02
61506;BME280;47366;51.916;4.574;2023-01-19T10:23:56;100686.00;;;6.08;76.78
61506;BME280;47366;51.916;4.574;2023-01-19T10:26:30;100686.72;;;6.12;74.20
61506;BME280;47366;51.916;4.574;2023-01-19T10:29:05;100700.03;;;6.15;74.52
61506;BME280;47366;51.916;4.574;2023-01-19T10:31:31;100695.03;;;6.26;74.60
61506;BME280;47366;51.916;4.574;2023-01-19T10:33:58;100689.06;;;6.38;74.14
61506;BME280;47366;51.916;4.574;2023-01-19T10:36:28;100696.72;;;6.48;74.39
61506;BME280;47366;51.916;4.574;2023-01-19T10:38:54;100695.91;;;6.65;74.40
61506;BME280;47366;51.916;4.574;2023-01-19T10:41:26;100686.88;;;6.85;75.05
61506;BME280;47366;51.916;4.574;2023-01-19T10:44:03;100681.06;;;6.94;73.64
61506;BME280;47366;51.916;4.574;2023-01-19T10:48:57;100686.13;;;7.00;72.78
61506;BME280;47366;51.916;4.574;2023-01-19T10:51:23;100693.69;;;7.11;71.64
61506;BME280;47366;51.916;4.574;2023-01-19T10:53:59;100682.59;;;7.17;71.16
61506;BME280;47366;51.916;4.574;2023-01-19T10:56:29;100690.16;;;7.28;70.18
61506;BME280;47366;51.916;4.574;2023-01-19T10:58:58;100697.19;;;7.30;69.97
61506;BME280;47366;51.916;4.574;2023-01-19T11:01:25;100677.06;;;7.20;69.80
61506;BME280;47366;51.916;4.574;2023-01-19T11:03:52;100690.44;;;7.21;68.74
61506;BME280;47366;51.916;4.574;2023-01-19T11:06:25;100694.97;;;7.21;69.30
61506;BME280;47366;51.916;4.574;2023-01-19T11:08:52;100692.97;;;6.88;68.57
61506;BME280;47366;51.916;4.574;2023-01-19T11:11:19;100690.03;;;6.56;68.84
61506;BME280;47366;51.916;4.574;2023-01-19T11:14:02;100694.44;;;6.38;70.68
61506;BME280;47366;51.916;4.574;2023-01-19T11:16:30;100696.63;;;6.30;71.07
61506;BME280;47366;51.916;4.574;2023-01-19T11:18:56;100696.69;;;6.29;71.24
61506;BME280;47366;51.916;4.574;2023-01-19T11:21:27;100697.13;;;6.38;71.79
61506;BME280;47366;51.916;4.574;2023-01-19T11:23:58;100698.47;;;6.30;70.80
61506;BME280;47366;51.916;4.574;2023-01-19T11:26:43;100687.34;;;6.56;71.60
61506;BME280;47366;51.916;4.574;2023-01-19T11:29:20;100686.47;;;6.75;69.83
61506;BME280;47366;51.916;4.574;2023-01-19T11:31:53;100683.97;;;6.89;69.99
61506;BME280;47366;51.916;4.574;2023-01-19T11:34:35;100679.28;;;6.93;67.20
61506;BME280;47366;51.916;4.574;2023-01-19T11:39:48;100679.66;;;7.21;68.33
61506;BME280;47366;51.916;4.574;2023-01-19T11:42:16;100670.88;;;7.35;69.27
61506;BME280;47366;51.916;4.574;2023-01-19T11:45:00;100682.41;;;7.39;67.82
61506;BME280;47366;51.916;4.574;2023-01-19T11:47:37;100682.44;;;7.20;66.42
61506;BME280;47366;51.916;4.574;2023-01-19T11:50:14;100686.84;;;7.04;69.55
61506;BME280;47366;51.916;4.574;2023-01-19T11:52:47;100686.59;;;6.72;70.24
61506;BME280;47366;51.916;4.574;2023-01-19T11:55:36;100690.69;;;6.43;68.81
61506;BME280;47366;51.916;4.574;2023-01-19T11:58:05;100695.31;;;6.20;69.14
61506;BME280;47366;51.916;4.574;2023-01-19T12:00:41;100702.03;;;6.10;71.48
61506;BME280;47366;51.916;4.574;2023-01-19T12:03:15;100696.72;;;5.88;72.02
61506;BME280;47366;51.916;4.574;2023-01-19T12:05:45;100696.31;;;5.77;71.72
61506;BME280;47366;51.916;4.574;2023-01-19T12:08:21;100695.84;;;5.67;72.54
61506;BME280;47366;51.916;4.574;2023-01-19T12:10:49;100696.53;;;5.72;71.71
61506;BME280;47366;51.916;4.574;2023-01-19T12:13:22;100694.53;;;5.77;72.16
61506;BME280;47366;51.916;4.574;2023-01-19T12:15:52;100704.75;;;5.89;72.33
61506;BME280;47366;51.916;4.574;2023-01-19T12:18:21;100691.56;;;5.83;73.16
61506;BME280;47366;51.916;4.574;2023-01-19T12:20:52;100696.13;;;5.81;70.27
61506;BME280;47366;51.916;4.574;2023-01-19T12:28:40;100689.63;;;5.66;69.33
61506;BME280;47366;51.916;4.574;2023-01-19T12:31:07;100696.34;;;5.56;69.96
61506;BME280;47366;51.916;4.574;2023-01-19T12:33:37;100685.75;;;5.53;68.80
61506;BME280;47366;51.916;4.574;2023-01-19T12:38:45;100695.38;;;5.57;71.15
61506;BME280;47366;51.916;4.574;2023-01-19T12:49:51;100684.84;;;5.52;69.14
61506;BME280;47366;51.916;4.574;2023-01-19T12:52:23;100680.13;;;5.58;69.17
61506;BME280;47366;51.916;4.574;2023-01-19T12:58:15;100679.75;;;5.67;68.59
61506;BME280;47366;51.916;4.574;2023-01-19T13:02:48;100679.28;;;5.98;68.47
61506;BME280;47366;51.916;4.574;2023-01-19T13:13:28;100679.97;;;6.60;67.61
61506;BME280;47366;51.916;4.574;2023-01-19T13:15:55;100671.63;;;6.66;66.21
61506;BME280;47366;51.916;4.574;2023-01-19T13:18:27;100669.09;;;6.63;67.39
61506;BME280;47366;51.916;4.574;2023-01-19T13:21:04;100681.44;;;6.67;66.48
61506;BME280;47366;51.916;4.574;2023-01-19T13:26:13;100673.94;;;6.36;66.91
61506;BME280;47366;51.916;4.574;2023-01-19T13:28:42;100690.81;;;6.21;67.54
61506;BME280;47366;51.916;4.574;2023-01-19T13:31:08;100691.59;;;6.04;67.38
61506;BME280;47366;51.916;4.574;2023-01-19T13:33:54;100688.88;;;5.83;67.68
61506;BME280;47366;51.916;4.574;2023-01-19T13:36:27;100698.44;;;5.70;66.58
61506;BME280;47366;51.916;4.574;2023-01-19T13:38:56;100690.16;;;5.54;67.83
61506;BME280;47366;51.916;4.574;2023-01-19T13:41:26;100695.19;;;5.41;69.01
61506;BME280;47366;51.916;4.574;2023-01-19T13:43:58;100701.88;;;5.31;68.69
61506;BME280;47366;51.916;4.574;2023-01-19T13:46:25;100692.47;;;5.21;68.53
61506;BME280;47366;51.916;4.574;2023-01-19T13:48:54;100702.44;;;5.17;69.86
61506;BME280;47366;51.916;4.574;2023-01-19T13:51:20;100697.06;;;5.17;69.72
61506;BME280;47366;51.916;4.574;2023-01-19T13:53:56;100699.97;;;5.13;70.78
61506;BME280;47366;51.916;4.574;2023-01-19T13:56:24;100702.78;;;5.09;69.87
61506;BME280;47366;51.916;4.574;2023-01-19T14:01:35;100702.09;;;5.04;70.86
61506;BME280;47366;51.916;4.574;2023-01-19T14:04:01;100704.91;;;5.01;71.13
61506;BME280;47366;51.916;4.574;2023-01-19T14:06:35;100698.84;;;4.96;70.78
61506;BME280;47366;51.916;4.574;2023-01-19T14:09:18;100711.47;;;4.94;71.37
61506;BME280;47366;51.916;4.574;2023-01-19T14:11:45;100708.84;;;4.93;71.07
61506;BME280;47366;51.916;4.574;2023-01-19T14:14:25;100716.16;;;4.89;72.19